Time;durP1;ratioP1;P1;durP2;ratioP2;P2;SDS_P1;SDS_P2;PMS_P1;PMS_P2;Temp;Humidity;BMP_temperature;BMP_pressure;BME280_temperature;BME280_humidity;BME280_pressure;Samples;Min_cycle;Max_cycle;Signal;HPM_P1;HPM_P2
2021/07/11 00:00:32;;;;;;;11.45;10.32;;;;;;;16.68;79.23;99571.31;4973064;28;20063;-74
2021/07/11 00:02:58;;;;;;;10.32;9.32;;;;;;;16.67;79.27;99566.97;4956029;28;20062;-74
2021/07/11 00:05:25;;;;;;;9.80;8.80;;;;;;;16.66;79.43;99573.25;4975663;28;20047;-74
2021/07/11 00:07:51;;;;;;;12.65;10.32;;;;;;;16.65;79.50;99566.25;4976473;28;20035;-75
2021/07/11 00:10:18;;;;;;;10.85;9.57;;;;;;;16.65;79.87;99563.56;4956069;28;20149;-74
2021/07/11 00:12:44;;;;;;;11.43;9.60;;;;;;;16.65;79.09;99563.56;4971962;28;20066;-75
2021/07/11 00:15:13;;;;;;;11.13;8.50;;;;;;;16.66;79.61;99565.25;4971709;28;20039;-74
2021/07/11 00:17:43;;;;;;;12.45;10.48;;;;;;;16.62;79.20;99564.66;4937643;28;20055;-74
2021/07/11 00:20:11;;;;;;;13.80;10.55;;;;;;;16.62;79.84;99574.47;4954460;28;20066;-74
2021/07/11 00:22:37;;;;;;;13.43;10.50;;;;;;;16.59;79.76;99564.91;4971348;28;20055;-73
2021/07/11 00:25:04;;;;;;;12.32;11.00;;;;;;;16.57;79.87;99576.66;4970991;28;20039;-74
2021/07/11 00:27:30;;;;;;;12.27;10.88;;;;;;;16.55;79.79;99570.59;4970552;28;20125;-73
2021/07/11 00:29:55;;;;;;;11.55;10.35;;;;;;;16.56;79.63;99582.91;4970710;28;20118;-74
2021/07/11 00:32:20;;;;;;;12.13;9.77;;;;;;;16.55;79.69;99574.09;4970570;28;20498;-74
2021/07/11 00:34:46;;;;;;;10.90;9.77;;;;;;;16.56;79.48;99574.94;4938032;28;20055;-74
2021/07/11 00:37:12;;;;;;;13.00;11.65;;;;;;;16.58;79.45;99584.50;4970832;28;20122;-73
2021/07/11 00:39:37;;;;;;;11.52;10.27;;;;;;;16.57;79.45;99579.31;4972516;28;20494;-73
2021/07/11 00:42:02;;;;;;;14.73;10.13;;;;;;;16.57;78.98;99580.16;4975630;28;20049;-73
2021/07/11 00:44:28;;;;;;;15.02;11.07;;;;;;;16.55;79.12;99589.22;4982505;28;20039;-74
2021/07/11 00:46:54;;;;;;;14.38;10.80;;;;;;;16.59;79.22;99593.31;4993106;28;20042;-73
2021/07/11 00:49:19;;;;;;;15.45;10.10;;;;;;;16.59;79.22;99586.22;4993086;28;20034;-73
2021/07/11 00:51:45;;;;;;;11.50;9.75;;;;;;;16.61;79.00;99586.06;4992027;28;20086;-75
2021/07/11 00:54:10;;;;;;;12.73;11.00;;;;;;;16.61;79.09;99594.88;4997989;28;20034;-75
2021/07/11 00:56:36;;;;;;;14.75;12.43;;;;;;;16.61;79.58;99594.88;5000015;28;20054;-73
2021/07/11 00:59:02;;;;;;;16.20;11.82;;;;;;;16.59;79.81;99601.31;4999604;28;20034;-74
2021/07/11 01:01:45;;;;;;;14.13;10.60;;;;;;;16.63;79.12;99608.09;4971489;28;20046;-74
2021/07/11 01:04:19;;;;;;;11.90;10.02;;;;;;;16.65;79.30;99601.69;4998560;28;20038;-74
2021/07/11 01:06:50;;;;;;;22.00;12.60;;;;;;;16.66;79.27;99606.06;4997922;28;20034;-75
2021/07/11 01:09:23;;;;;;;15.50;12.93;;;;;;;16.68;79.27;99611.25;4979408;28;20097;-74
2021/07/11 01:11:54;;;;;;;14.95;11.63;;;;;;;16.70;79.07;99604.00;4996216;28;20041;-73
2021/07/11 01:14:22;;;;;;;11.80;10.63;;;;;;;16.71;79.66;99608.34;4995615;28;20052;-74
2021/07/11 01:16:50;;;;;;;17.90;10.45;;;;;;;16.70;79.37;99602.16;4994577;28;20606;-75
2021/07/11 01:19:31;;;;;;;13.00;10.63;;;;;;;16.73;79.58;99604.59;4993718;28;20042;-73
2021/07/11 01:22:02;;;;;;;13.48;11.30;;;;;;;16.72;79.11;99597.59;4978050;28;20031;-74
2021/07/11 01:24:33;;;;;;;14.73;12.57;;;;;;;16.72;79.14;99589.59;4973759;28;20544;-75
2021/07/11 01:27:02;;;;;;;14.70;10.95;;;;;;;16.72;79.16;99588.75;4973350;28;20561;-74
2021/07/11 01:29:28;;;;;;;18.60;11.13;;;;;;;16.73;79.14;99585.13;4973495;28;20579;-74
2021/07/11 01:31:54;;;;;;;15.88;12.73;;;;;;;16.72;78.68;99591.41;4973322;28;20043;-74
2021/07/11 01:34:22;;;;;;;14.10;12.32;;;;;;;16.71;79.26;99593.25;4982928;28;20042;-73
2021/07/11 01:36:48;;;;;;;14.45;10.90;;;;;;;16.74;79.00;99597.47;4974913;28;20031;-74
2021/07/11 01:39:13;;;;;;;11.73;10.52;;;;;;;16.75;79.05;99599.16;4992521;28;20563;-74
2021/07/11 01:41:40;;;;;;;14.43;12.98;;;;;;;16.79;78.82;99608.66;4992307;28;20375;-74
2021/07/11 01:44:06;;;;;;;12.52;10.73;;;;;;;16.79;79.31;99603.31;4992657;28;20569;-74
2021/07/11 01:46:33;;;;;;;13.57;11.10;;;;;;;16.75;78.84;99594.69;4992935;28;20129;-73
2021/07/11 01:49:00;;;;;;;13.75;11.18;;;;;;;16.77;78.96;99605.22;4991585;28;20038;-74
2021/07/11 01:51:26;;;;;;;13.32;10.98;;;;;;;16.74;79.23;99600.97;4992523;28;20034;-74
2021/07/11 01:53:52;;;;;;;15.32;12.00;;;;;;;16.74;78.95;99605.47;4974984;28;20042;-74
2021/07/11 01:56:18;;;;;;;16.33;11.98;;;;;;;16.72;79.21;99604.72;4992267;28;20038;-74
2021/07/11 01:58:43;;;;;;;14.75;11.48;;;;;;;16.73;79.35;99596.59;4974813;28;20561;-74
2021/07/11 02:01:12;;;;;;;14.02;12.48;;;;;;;16.72;79.73;99586.94;4992130;28;20398;-75
2021/07/11 02:03:38;;;;;;;15.70;11.32;;;;;;;16.70;79.47;99596.84;4992344;28;20124;-73
2021/07/11 02:06:05;;;;;;;11.80;9.80;;;;;;;16.70;79.36;99593.34;4991791;28;20117;-73
2021/07/11 02:08:30;;;;;;;11.85;10.13;;;;;;;16.66;79.16;99600.75;4991857;28;20042;-73
2021/07/11 02:10:57;;;;;;;12.20;9.85;;;;;;;16.67;79.44;99604.25;4992345;28;20034;-72
2021/07/11 02:13:30;;;;;;;13.05;10.88;;;;;;;16.68;79.78;99604.09;4974314;28;20030;-72
2021/07/11 02:16:02;;;;;;;11.80;10.32;;;;;;;16.68;79.93;99601.44;4992572;28;20045;-74
2021/07/11 02:18:28;;;;;;;12.80;11.30;;;;;;;16.68;79.75;99598.78;4996361;28;20050;-74
2021/07/11 02:20:55;;;;;;;11.95;10.35;;;;;;;16.66;79.11;99597.19;4996318;28;20061;-73
2021/07/11 02:23:25;;;;;;;10.02;8.60;;;;;;;16.66;79.49;99595.41;4995212;28;20065;-74
2021/07/11 02:25:52;;;;;;;11.15;9.60;;;;;;;16.67;79.02;99602.41;4994577;28;20045;-73
2021/07/11 02:28:18;;;;;;;9.40;8.05;;;;;;;16.68;78.90;99608.59;4991375;28;20045;-73
2021/07/11 02:30:58;;;;;;;11.75;8.75;;;;;;;16.66;79.09;99611.38;4991219;28;20039;-73
2021/07/11 02:33:32;;;;;;;12.07;8.07;;;;;;;16.63;78.53;99610.75;4961805;28;20597;-73
2021/07/11 02:36:02;;;;;;;10.15;8.70;;;;;;;16.60;78.71;99614.50;4991138;28;20035;-73
2021/07/11 02:38:38;;;;;;;11.43;8.27;;;;;;;16.61;78.77;99607.38;4988038;28;20027;-73
2021/07/11 02:41:04;;;;;;;10.93;8.45;;;;;;;16.59;79.15;99614.59;4951614;28;20043;-74
2021/07/11 02:43:30;;;;;;;8.73;7.00;;;;;;;16.57;78.92;99613.91;4952623;28;20050;-73
2021/07/11 02:45:56;;;;;;;10.00;7.20;;;;;;;16.55;78.77;99611.34;4952529;29;21517;-74
2021/07/11 02:48:22;;;;;;;11.02;9.35;;;;;;;16.51;77.96;99615.19;4952192;28;20055;-74
2021/07/11 02:50:49;;;;;;;11.18;8.27;;;;;;;16.49;78.61;99611.81;4952384;28;20448;-74
2021/07/11 02:53:22;;;;;;;10.50;9.13;;;;;;;16.48;78.76;99613.63;4935189;29;20035;-73
2021/07/11 02:55:51;;;;;;;13.05;8.23;;;;;;;16.45;78.79;99613.88;4952254;28;20039;-73
2021/07/11 02:58:19;;;;;;;12.60;8.88;;;;;;;16.48;78.98;99616.28;4951962;28;20043;-72
2021/07/11 03:00:47;;;;;;;9.88;7.95;;;;;;;16.47;78.94;99619.09;4952268;28;20039;-75
2021/07/11 03:03:15;;;;;;;10.48;7.60;;;;;;;16.45;78.94;99613.03;4951215;28;20491;-74
2021/07/11 03:05:41;;;;;;;11.07;9.27;;;;;;;16.44;79.39;99627.28;4951912;28;20439;-73
2021/07/11 03:08:07;;;;;;;14.07;9.82;;;;;;;16.44;78.95;99629.94;4951626;28;20090;-73
2021/07/11 03:10:33;;;;;;;15.00;9.60;;;;;;;16.45;79.00;99631.66;4952667;28;20043;-74
2021/07/11 03:13:01;;;;;;;12.23;9.70;;;;;;;16.45;79.16;99635.16;4952247;28;20070;-74
2021/07/11 03:15:28;;;;;;;12.52;9.25;;;;;;;16.44;78.92;99628.16;4952044;28;20051;-74
2021/07/11 03:17:55;;;;;;;16.75;12.52;;;;;;;16.43;78.67;99628.25;4933698;29;20491;-74
2021/07/11 03:20:20;;;;;;;13.45;10.20;;;;;;;16.42;78.73;99630.06;4951680;28;20553;-74
2021/07/11 03:22:47;;;;;;;13.35;10.65;;;;;;;16.39;78.88;99626.78;4951568;28;20043;-74
2021/07/11 03:25:13;;;;;;;13.18;10.73;;;;;;;16.41;79.21;99632.84;4962231;28;20038;-74
2021/07/11 03:27:40;;;;;;;15.13;10.00;;;;;;;16.39;79.32;99632.09;4970757;28;20446;-75
2021/07/11 03:30:12;;;;;;;21.63;12.20;;;;;;;16.37;79.06;99626.06;4971636;28;20403;-75
2021/07/11 03:32:45;;;;;;;13.90;10.38;;;;;;;16.36;78.97;99635.00;4970861;28;20045;-74
2021/07/11 03:35:13;;;;;;;12.98;9.77;;;;;;;16.35;78.94;99630.66;4970467;28;20042;-75
2021/07/11 03:37:41;;;;;;;15.73;12.20;;;;;;;16.32;79.12;99631.75;4970575;28;20039;-75
2021/07/11 03:40:08;;;;;;;15.07;11.57;;;;;;;16.28;79.09;99628.44;4970894;28;20419;-75
2021/07/11 03:42:39;;;;;;;13.70;11.32;;;;;;;16.29;79.19;99637.28;4971136;28;20178;-75
2021/07/11 03:45:05;;;;;;;13.43;11.20;;;;;;;16.28;79.36;99639.09;4971295;28;20039;-75
2021/07/11 03:47:39;;;;;;;16.35;11.63;;;;;;;16.31;79.20;99643.31;4971079;28;20086;-75
2021/07/11 03:50:06;;;;;;;17.95;11.77;;;;;;;16.32;79.12;99631.75;4970789;28;20037;-75
2021/07/11 03:52:39;;;;;;;14.45;10.57;;;;;;;16.35;79.16;99638.66;4971010;28;20037;-75
2021/07/11 03:55:06;;;;;;;16.20;11.82;;;;;;;16.38;79.13;99644.56;4971040;28;20042;-75
2021/07/11 03:57:32;;;;;;;15.70;11.15;;;;;;;16.37;78.86;99648.19;4953194;28;20511;-74
2021/07/11 03:59:59;;;;;;;14.25;11.27;;;;;;;16.37;78.97;99648.19;4970963;28;20491;-74
2021/07/11 04:02:32;;;;;;;18.33;11.80;;;;;;;16.39;78.61;99653.38;4953196;28;20075;-75
2021/07/11 04:04:59;;;;;;;13.20;10.55;;;;;;;16.39;78.80;99651.59;4971209;28;20055;-75
2021/07/11 04:07:26;;;;;;;9.98;8.98;;;;;;;16.43;78.28;99653.03;4970669;28;20482;-75
2021/07/11 04:09:54;;;;;;;16.52;11.65;;;;;;;16.44;78.39;99656.53;4970637;28;20031;-73
2021/07/11 04:12:19;;;;;;;12.75;9.90;;;;;;;16.44;78.00;99651.22;4952844;28;20098;-75
2021/07/11 04:14:45;;;;;;;13.90;10.57;;;;;;;16.45;78.13;99652.94;4970531;28;20039;-75
2021/07/11 04:17:11;;;;;;;13.40;10.25;;;;;;;16.46;78.51;99649.31;4952842;28;20129;-74
2021/07/11 04:19:41;;;;;;;13.85;11.18;;;;;;;16.46;78.38;99649.31;4970302;28;20031;-75
2021/07/11 04:22:09;;;;;;;14.02;9.95;;;;;;;16.46;78.46;99649.31;4970599;28;20049;-76
2021/07/11 04:24:37;;;;;;;12.90;9.68;;;;;;;16.45;78.39;99655.59;4970715;28;20371;-74
2021/07/11 04:27:03;;;;;;;16.63;10.05;;;;;;;16.41;77.80;99652.31;4970295;28;20466;-75
2021/07/11 04:29:30;;;;;;;13.50;10.13;;;;;;;16.40;78.33;99653.28;4973223;28;20063;-75
2021/07/11 04:31:57;;;;;;;14.60;10.50;;;;;;;16.36;77.84;99646.50;4975438;28;20066;-74
2021/07/11 04:34:27;;;;;;;13.82;9.50;;;;;;;16.38;78.19;99649.03;4958129;28;20035;-75
2021/07/11 04:36:54;;;;;;;14.07;10.13;;;;;;;16.39;78.29;99651.59;4956848;28;20039;-74
2021/07/11 04:39:20;;;;;;;14.23;10.43;;;;;;;16.39;78.26;99640.97;4974241;28;20042;-74
2021/07/11 04:41:45;;;;;;;12.93;9.45;;;;;;;16.43;77.75;99645.06;4973926;28;20034;-74
2021/07/11 04:44:12;;;;;;;10.95;9.02;;;;;;;16.46;78.19;99650.16;4974051;28;20038;-75
2021/07/11 04:46:37;;;;;;;11.32;9.90;;;;;;;16.49;77.78;99638.41;4973971;28;20030;-74
2021/07/11 04:49:02;;;;;;;14.18;10.85;;;;;;;16.50;78.18;99646.28;4974356;28;20042;-74
2021/07/11 04:51:28;;;;;;;10.55;9.45;;;;;;;16.51;77.73;99645.34;4974023;28;20522;-76
2021/07/11 04:53:53;;;;;;;13.93;10.00;;;;;;;16.52;77.70;99644.38;4973906;28;20041;-76
2021/07/11 04:56:19;;;;;;;14.45;11.55;;;;;;;16.53;77.60;99639.88;4974015;28;20035;-75
2021/07/11 04:58:45;;;;;;;17.27;12.75;;;;;;;16.51;77.27;99640.03;4974342;28;20575;-75
2021/07/11 05:01:10;;;;;;;13.48;10.05;;;;;;;16.53;77.50;99637.22;4973856;28;20043;-74
2021/07/11 05:03:35;;;;;;;18.75;11.10;;;;;;;16.50;77.07;99646.28;4973881;28;20042;-73
2021/07/11 05:06:00;;;;;;;13.73;10.80;;;;;;;16.51;77.29;99644.47;4973805;28;20039;-75
2021/07/11 05:08:26;;;;;;;16.25;10.93;;;;;;;16.51;77.60;99650.66;4973802;28;20118;-75
2021/07/11 05:10:51;;;;;;;13.80;11.50;;;;;;;16.50;77.64;99651.63;4973855;28;20065;-74
2021/07/11 05:13:17;;;;;;;12.00;10.75;;;;;;;16.50;77.31;99661.41;4973616;28;20077;-74
2021/07/11 05:15:42;;;;;;;16.13;11.75;;;;;;;16.48;77.53;99668.66;4974315;28;20059;-75
2021/07/11 05:18:07;;;;;;;16.33;12.32;;;;;;;16.47;77.66;99661.66;4972995;28;20125;-74
2021/07/11 05:20:33;;;;;;;16.58;13.00;;;;;;;16.46;77.39;99671.44;4973947;28;20086;-75
2021/07/11 05:22:58;;;;;;;18.42;12.50;;;;;;;16.45;77.59;99669.75;4973120;28;20121;-75
2021/07/11 05:25:24;;;;;;;14.30;12.07;;;;;;;16.45;77.63;99663.59;4973705;28;20398;-74
2021/07/11 05:27:50;;;;;;;16.83;11.98;;;;;;;16.44;77.40;99665.41;4973445;28;20043;-75
2021/07/11 05:30:16;;;;;;;15.07;11.75;;;;;;;16.43;77.71;99660.19;4973952;28;20042;-75
2021/07/11 05:32:41;;;;;;;19.15;12.50;;;;;;;16.42;77.88;99664.66;4975890;28;20027;-74
2021/07/11 05:35:07;;;;;;;16.80;12.13;;;;;;;16.42;77.94;99670.00;4978734;28;20039;-74
2021/07/11 05:37:33;;;;;;;16.90;11.98;;;;;;;16.46;78.17;99660.78;4974083;28;20038;-74
2021/07/11 05:39:58;;;;;;;18.13;13.70;;;;;;;16.49;77.97;99671.22;4972442;28;20403;-74
2021/07/11 05:42:24;;;;;;;13.93;12.43;;;;;;;16.49;77.90;99676.53;4973154;28;20039;-75
2021/07/11 05:44:49;;;;;;;23.15;12.95;;;;;;;16.50;77.85;99678.22;4973279;28;20487;-74
2021/07/11 05:47:14;;;;;;;21.20;13.65;;;;;;;16.49;77.45;99683.66;4973029;28;20085;-75
2021/07/11 05:49:40;;;;;;;24.75;13.80;;;;;;;16.51;77.93;99676.41;4973288;28;20059;-76
2021/07/11 05:52:05;;;;;;;20.05;12.52;;;;;;;16.54;77.79;99681.53;4973491;28;20419;-76
2021/07/11 05:54:31;;;;;;;18.73;13.55;;;;;;;16.52;77.41;99678.97;4972827;28;20035;-75
2021/07/11 05:56:56;;;;;;;15.23;13.02;;;;;;;16.49;77.23;99683.66;4972859;28;20027;-76
2021/07/11 05:59:22;;;;;;;17.40;13.40;;;;;;;16.45;77.31;99684.88;4973143;28;20039;-76
2021/07/11 06:01:47;;;;;;;21.02;14.43;;;;;;;16.45;77.53;99687.53;4972983;28;20046;-76
2021/07/11 06:04:13;;;;;;;17.90;12.88;;;;;;;16.44;77.80;99691.13;4972995;28;20406;-74
2021/07/11 06:06:38;;;;;;;15.60;12.95;;;;;;;16.44;77.84;99689.34;4972835;28;20053;-75
2021/07/11 06:09:03;;;;;;;18.88;14.25;;;;;;;16.44;77.69;99693.78;4974542;28;20117;-75
2021/07/11 06:11:30;;;;;;;21.35;14.75;;;;;;;16.42;77.83;99691.28;4976001;28;20035;-75
2021/07/11 06:13:55;;;;;;;17.45;14.00;;;;;;;16.39;77.76;99693.28;4976191;28;20023;-75
2021/07/11 06:16:20;;;;;;;25.75;14.82;;;;;;;16.35;77.86;99691.84;4972648;28;20034;-75
2021/07/11 06:18:45;;;;;;;18.00;14.73;;;;;;;16.34;77.90;99687.47;4972520;28;20034;-74
2021/07/11 06:21:11;;;;;;;15.18;12.90;;;;;;;16.33;78.17;99685.78;4972770;28;20058;-75
2021/07/11 06:23:36;;;;;;;16.73;14.73;;;;;;;16.31;77.94;99689.41;4973055;28;20058;-75
2021/07/11 06:26:03;;;;;;;17.92;12.77;;;;;;;16.34;77.97;99687.47;4989444;28;20042;-75
2021/07/11 06:28:29;;;;;;;19.00;14.10;;;;;;;16.37;77.98;99687.28;4973891;28;20030;-74
2021/07/11 06:30:55;;;;;;;15.95;14.18;;;;;;;16.40;77.37;99690.53;4991498;28;20125;-75
2021/07/11 06:33:20;;;;;;;18.02;14.63;;;;;;;16.42;77.74;99687.78;4991755;28;20117;-75
2021/07/11 06:35:45;;;;;;;20.85;15.23;;;;;;;16.49;77.15;99676.53;4991723;28;20044;-76
2021/07/11 06:38:11;;;;;;;17.58;14.15;;;;;;;16.50;77.39;99694.19;4991362;28;20031;-75
2021/07/11 06:40:37;;;;;;;16.88;14.60;;;;;;;16.55;77.18;99685.88;4992282;28;20581;-75
2021/07/11 06:43:02;;;;;;;20.08;15.82;;;;;;;16.53;76.75;99707.25;4991057;28;20096;-74
2021/07/11 06:45:27;;;;;;;15.88;14.27;;;;;;;16.55;76.52;99703.66;4991463;28;20129;-74
2021/07/11 06:47:53;;;;;;;18.15;13.55;;;;;;;16.55;76.30;99706.31;4990916;28;20496;-75
2021/07/11 06:50:18;;;;;;;16.13;13.07;;;;;;;16.52;76.25;99707.41;4991416;28;20447;-74
2021/07/11 06:52:44;;;;;;;15.90;13.45;;;;;;;16.54;75.95;99708.13;4973980;28;20109;-73
2021/07/11 06:55:11;;;;;;;18.33;14.13;;;;;;;16.58;75.94;99716.72;4991707;28;20064;-74
2021/07/11 06:57:40;;;;;;;15.68;13.48;;;;;;;16.63;75.78;99709.25;4991583;28;20030;-74
2021/07/11 07:00:13;;;;;;;14.80;12.30;;;;;;;16.67;75.81;99710.72;4991506;28;20030;-73
2021/07/11 07:02:39;;;;;;;18.23;13.30;;;;;;;16.69;75.73;99719.44;4990764;28;20125;-74
2021/07/11 07:05:06;;;;;;;16.08;13.55;;;;;;;16.72;75.50;99713.88;4991500;28;20573;-74
2021/07/11 07:07:32;;;;;;;18.17;12.82;;;;;;;16.71;75.70;99720.16;4990768;28;20046;-74
2021/07/11 07:09:58;;;;;;;15.27;13.13;;;;;;;16.77;75.52;99709.03;4990894;28;20084;-74
2021/07/11 07:12:23;;;;;;;15.32;12.65;;;;;;;16.84;75.77;99718.28;4990714;28;20093;-74
2021/07/11 07:14:48;;;;;;;18.20;12.50;;;;;;;16.90;75.22;99707.16;4973752;28;20077;-73
2021/07/11 07:17:14;;;;;;;15.10;13.10;;;;;;;16.98;74.80;99722.53;4990772;28;20080;-73
2021/07/11 07:19:39;;;;;;;14.18;12.68;;;;;;;17.04;74.55;99721.25;4990624;28;20513;-72
2021/07/11 07:22:05;;;;;;;18.58;14.65;;;;;;;17.06;74.50;99720.16;4991016;28;20108;-74
2021/07/11 07:24:30;;;;;;;15.60;12.93;;;;;;;17.15;74.40;99724.78;4990644;28;20046;-73
2021/07/11 07:26:56;;;;;;;16.75;14.90;;;;;;;17.16;73.66;99721.13;4990329;28;20035;-73
2021/07/11 07:29:21;;;;;;;17.52;14.38;;;;;;;17.24;73.48;99712.53;4990833;28;20039;-74
2021/07/11 07:31:47;;;;;;;19.60;15.07;;;;;;;17.35;72.56;99712.56;4990616;28;20038;-74
2021/07/11 07:34:13;;;;;;;18.85;15.80;;;;;;;17.46;72.25;99714.38;4987035;28;20046;-75
2021/07/11 07:36:38;;;;;;;17.17;13.93;;;;;;;17.57;71.42;99717.06;4973256;28;20042;-75
2021/07/11 07:39:04;;;;;;;15.85;13.63;;;;;;;17.74;70.95;99713.00;4989166;28;20390;-75
2021/07/11 07:41:29;;;;;;;16.38;13.95;;;;;;;18.00;70.42;99713.63;4990410;28;20038;-74
2021/07/11 07:43:55;;;;;;;15.77;12.20;;;;;;;18.30;69.68;99708.56;4990419;28;20038;-74
2021/07/11 07:46:21;;;;;;;13.45;11.68;;;;;;;18.31;68.55;99711.13;4990807;28;20044;-74
2021/07/11 07:48:46;;;;;;;15.43;11.40;;;;;;;18.31;69.00;99718.25;4989733;28;20030;-74
2021/07/11 07:51:13;;;;;;;19.42;12.75;;;;;;;18.47;68.06;99715.19;4989532;28;20121;-74
2021/07/11 07:53:38;;;;;;;14.43;11.13;;;;;;;18.75;67.05;99716.38;4990199;28;20412;-75
2021/07/11 07:56:04;;;;;;;15.20;11.30;;;;;;;19.00;66.24;99708.00;4990875;28;20117;-74
2021/07/11 07:58:29;;;;;;;15.30;11.95;;;;;;;19.24;65.87;99714.88;4989701;28;20026;-75
2021/07/11 08:00:54;;;;;;;14.52;11.07;;;;;;;19.35;65.70;99716.63;4990197;28;20031;-74
2021/07/11 08:03:20;;;;;;;11.82;9.65;;;;;;;19.66;64.26;99714.78;4989520;28;20073;-75
2021/07/11 08:05:46;;;;;;;11.77;9.75;;;;;;;19.96;63.17;99721.97;4990318;28;20050;-73
2021/07/11 08:08:11;;;;;;;10.82;9.63;;;;;;;20.12;61.59;99716.91;4989597;28;20072;-73
2021/07/11 08:10:37;;;;;;;14.50;8.88;;;;;;;19.87;62.19;99720.09;4973621;28;20042;-74
2021/07/11 08:13:03;;;;;;;11.68;8.73;;;;;;;19.74;62.28;99715.00;4972575;28;20038;-75
2021/07/11 08:15:29;;;;;;;9.82;7.85;;;;;;;19.66;62.79;99718.28;4972617;28;20048;-75
2021/07/11 08:17:55;;;;;;;8.68;7.43;;;;;;;19.72;61.90;99719.63;4972149;28;20039;-75
2021/07/11 08:20:22;;;;;;;10.27;7.22;;;;;;;19.85;62.29;99722.91;4990116;28;20097;-74
2021/07/11 08:22:48;;;;;;;14.63;8.63;;;;;;;20.16;60.26;99718.31;4989071;28;20040;-74
2021/07/11 08:25:14;;;;;;;10.75;6.53;;;;;;;20.28;59.94;99716.38;4989565;28;20046;-74
2021/07/11 08:27:41;;;;;;;11.60;8.20;;;;;;;20.22;60.29;99719.59;4986504;28;20046;-74
2021/07/11 08:30:09;;;;;;;8.48;6.93;;;;;;;20.17;60.62;99724.53;4990309;28;20038;-75
2021/07/11 08:32:35;;;;;;;9.02;7.35;;;;;;;20.01;61.24;99719.72;4990063;28;20035;-74
2021/07/11 08:35:00;;;;;;;13.27;8.07;;;;;;;19.79;61.33;99726.13;4972578;28;20632;-75
2021/07/11 08:37:25;;;;;;;9.77;7.72;;;;;;;19.59;61.16;99718.97;4989418;28;20050;-74
2021/07/11 08:39:52;;;;;;;8.63;7.35;;;;;;;19.68;60.74;99713.69;4989712;28;20510;-75
2021/07/11 08:42:19;;;;;;;9.00;7.35;;;;;;;19.92;59.71;99716.00;4989498;28;20044;-75
2021/07/11 08:44:45;;;;;;;11.45;7.20;;;;;;;20.05;59.07;99712.25;4989885;28;20060;-74
2021/07/11 08:47:10;;;;;;;9.82;5.88;;;;;;;20.06;59.59;99713.91;4989382;28;20483;-74
2021/07/11 08:49:36;;;;;;;9.80;7.78;;;;;;;20.07;59.73;99723.66;4990130;28;20538;-77
2021/07/11 08:52:04;;;;;;;7.53;6.18;;;;;;;20.03;59.97;99722.22;4989460;28;20499;-74
2021/07/11 08:54:30;;;;;;;9.10;7.97;;;;;;;19.98;60.15;99719.13;4988982;28;20089;-74
2021/07/11 08:57:00;;;;;;;9.23;7.03;;;;;;;19.93;60.27;99715.03;4989284;28;20038;-74
2021/07/11 08:59:29;;;;;;;7.82;6.95;;;;;;;19.89;60.05;99713.63;4992087;28;20038;-75
2021/07/11 09:01:58;;;;;;;7.13;5.90;;;;;;;19.88;59.91;99717.25;4989930;28;20043;-74
2021/07/11 09:04:25;;;;;;;9.10;5.93;;;;;;;20.07;60.15;99721.81;4972668;28;20118;-74
2021/07/11 09:06:54;;;;;;;8.18;6.05;;;;;;;20.29;58.79;99719.88;4972561;28;20502;-74
2021/07/11 09:09:24;;;;;;;10.82;5.97;;;;;;;20.69;57.84;99726.97;4973544;28;20075;-74
2021/07/11 09:11:55;;;;;;;7.68;5.82;;;;;;;21.24;54.50;99719.13;4991018;28;20022;-74
2021/07/11 09:14:23;;;;;;;8.02;5.55;;;;;;;22.49;51.63;99716.78;4990502;28;20045;-76
2021/07/11 09:16:50;;;;;;;7.30;5.22;;;;;;;22.42;51.16;99715.75;4993416;28;20556;-75
2021/07/11 09:19:29;;;;;;;9.93;5.38;;;;;;;22.20;52.88;99718.84;4993104;28;20053;-75
2021/07/11 09:21:56;;;;;;;8.15;7.03;;;;;;;21.81;53.74;99721.75;4992897;28;20042;-76
2021/07/11 09:24:23;;;;;;;7.90;5.65;;;;;;;21.32;54.74;99721.09;4993532;28;20399;-75
2021/07/11 09:26:52;;;;;;;8.38;6.65;;;;;;;21.06;56.29;99728.91;4992814;28;20498;-75
2021/07/11 09:29:29;;;;;;;7.78;5.50;;;;;;;20.85;56.90;99731.78;4993090;28;20113;-74
2021/07/11 09:31:55;;;;;;;7.50;6.25;;;;;;;20.72;57.12;99740.06;4994151;28;20037;-75
2021/07/11 09:34:23;;;;;;;8.57;5.60;;;;;;;20.77;55.92;99737.81;4994382;28;20113;-74
2021/07/11 09:37:02;;;;;;;6.03;5.15;;;;;;;20.84;54.91;99740.78;4992680;28;20027;-74
2021/07/11 09:39:27;;;;;;;7.35;5.45;;;;;;;21.22;54.33;99743.41;4992298;28;20053;-75
2021/07/11 09:41:53;;;;;;;7.15;5.40;;;;;;;21.35;54.34;99736.88;4991592;28;20046;-75
2021/07/11 09:44:18;;;;;;;6.35;5.53;;;;;;;21.49;53.71;99735.59;4990312;28;20088;-73
2021/07/11 09:46:43;;;;;;;8.48;5.95;;;;;;;21.49;53.76;99738.28;4992311;28;20033;-73
2021/07/11 09:49:16;;;;;;;7.03;5.30;;;;;;;21.41;54.40;99731.81;4992618;28;20038;-74
2021/07/11 09:51:42;;;;;;;9.95;5.80;;;;;;;21.30;55.09;99739.16;4992572;28;20034;-73
2021/07/11 09:54:13;;;;;;;11.98;6.82;;;;;;;21.22;53.87;99740.72;4992925;28;20045;-75
2021/07/11 09:56:41;;;;;;;6.15;5.53;;;;;;;21.09;53.01;99737.47;4992748;28;20046;-73
2021/07/11 09:59:10;;;;;;;7.85;5.68;;;;;;;20.88;53.20;99750.25;4989249;28;20042;-74
2021/07/11 10:01:38;;;;;;;7.07;5.60;;;;;;;20.91;53.39;99752.63;4997300;28;20069;-74
2021/07/11 10:04:04;;;;;;;6.43;5.47;;;;;;;21.05;53.62;99748.66;4995745;28;20073;-74
2021/07/11 10:06:31;;;;;;;8.82;6.20;;;;;;;21.03;53.68;99756.84;4992075;28;20073;-73
2021/07/11 10:08:57;;;;;;;8.43;5.97;;;;;;;21.04;53.87;99749.63;4992037;28;20050;-74
2021/07/11 10:11:23;;;;;;;6.13;4.88;;;;;;;21.12;53.68;99747.94;4974415;28;20034;-74
2021/07/11 10:13:49;;;;;;;5.35;4.85;;;;;;;21.83;52.34;99738.53;4992032;28;20038;-76
2021/07/11 10:16:16;;;;;;;11.10;5.63;;;;;;;21.57;52.57;99738.38;4992312;28;20088;-76
2021/07/11 10:18:45;;;;;;;6.38;4.60;;;;;;;21.42;53.63;99746.91;4992895;28;20493;-74
2021/07/11 10:21:11;;;;;;;5.60;4.63;;;;;;;21.25;53.24;99744.09;4981858;28;20047;-75
2021/07/11 10:23:40;;;;;;;6.75;5.30;;;;;;;21.12;54.37;99742.59;4973630;28;20035;-75
2021/07/11 10:26:12;;;;;;;6.57;5.18;;;;;;;21.95;52.38;99736.50;4972150;28;20106;-76
2021/07/11 10:28:40;;;;;;;6.88;5.22;;;;;;;22.55;50.28;99736.00;4955490;28;20082;-75
2021/07/11 10:31:16;;;;;;;5.20;4.68;;;;;;;22.37;50.46;99739.50;4972513;28;20035;-74
2021/07/11 10:33:44;;;;;;;5.82;4.80;;;;;;;22.20;51.02;99741.19;4972053;28;20058;-74
2021/07/11 10:36:12;;;;;;;6.60;4.75;;;;;;;22.25;50.96;99735.38;4972189;28;20033;-75
2021/07/11 10:38:52;;;;;;;6.15;3.92;;;;;;;21.94;52.13;99737.50;4955143;28;20459;-75
2021/07/11 10:41:24;;;;;;;5.30;4.32;;;;;;;21.52;52.15;99738.81;4971648;28;20043;-75
2021/07/11 10:44:05;;;;;;;5.65;3.97;;;;;;;21.42;53.06;99740.69;4972519;28;20035;-75
2021/07/11 10:46:33;;;;;;;6.32;4.20;;;;;;;21.33;53.36;99745.06;4970422;28;20359;-76
2021/07/11 10:49:32;;;;;;;5.40;3.90;;;;;;;21.32;53.54;99742.53;4972113;28;20503;-75
2021/07/11 10:52:04;;;;;;;5.18;3.60;;;;;;;21.45;53.34;99735.03;4960794;28;20042;-76
2021/07/11 10:54:31;;;;;;;6.47;5.43;;;;;;;21.99;51.71;99729.84;4972712;28;20053;-75
2021/07/11 10:56:59;;;;;;;9.98;4.50;;;;;;;23.40;48.40;99730.94;4972158;28;20027;-74
2021/07/11 10:59:35;;;;;;;7.72;4.50;;;;;;;24.69;45.59;99733.44;4971901;28;20089;-75
2021/07/11 11:02:05;;;;;;;6.43;4.95;;;;;;;25.34;43.19;99727.97;4971506;28;20499;-75
2021/07/11 11:04:30;;;;;;;7.95;4.13;;;;;;;25.41;42.88;99731.69;4971621;28;20034;-75
2021/07/11 11:06:56;;;;;;;4.82;3.75;;;;;;;25.09;42.67;99719.06;4971331;28;20316;-74
2021/07/11 11:09:43;;;;;;;4.38;3.28;;;;;;;24.61;43.60;99718.94;4971545;28;20344;-75
2021/07/11 11:12:24;;;;;;;4.65;3.22;;;;;;;24.33;44.27;99722.91;4969859;28;20027;-74
2021/07/11 11:14:54;;;;;;;4.47;3.40;;;;;;;24.22;45.08;99726.75;4971289;28;20069;-74
2021/07/11 11:17:36;;;;;;;4.80;3.58;;;;;;;23.87;45.58;99727.81;4971316;28;20450;-76
2021/07/11 11:20:13;;;;;;;5.93;3.78;;;;;;;23.67;45.99;99717.28;4971431;28;20206;-75
2021/07/11 11:22:39;;;;;;;4.97;4.15;;;;;;;23.36;47.93;99725.88;4971048;28;20178;-75